Time;durP1;ratioP1;P1;durP2;ratioP2;P2;SDS_P1;SDS_P2;PMS_P1;PMS_P2;Temp;Humidity;BMP_temperature;BMP_pressure;BME280_temperature;BME280_humidity;BME280_pressure;Samples;Min_cycle;Max_cycle;Signal;HPM_P1;HPM_P2
2022/05/02 00:01:33;;;;;;;7.53;5.13;;;12.50;73.40;;;;;;5029100;28;20036;-72
2022/05/02 00:03:58;;;;;;;5.55;4.88;;;12.40;73.50;;;;;;5008719;28;20127;-72
2022/05/02 00:06:24;;;;;;;7.63;5.40;;;12.40;73.50;;;;;;5056433;28;20040;-72
2022/05/02 00:08:49;;;;;;;7.18;5.10;;;12.40;73.50;;;;;;5051195;28;20036;-72
2022/05/02 00:11:15;;;;;;;5.45;4.95;;;12.40;73.50;;;;;;5039062;28;20068;-72
2022/05/02 00:13:41;;;;;;;7.00;5.43;;;12.30;73.50;;;;;;5046622;28;20071;-73
2022/05/02 00:16:07;;;;;;;6.32;5.15;;;12.30;73.50;;;;;;5033527;28;20056;-72
2022/05/02 00:18:32;;;;;;;7.85;4.85;;;12.20;73.60;;;;;;5012629;28;20041;-72
2022/05/02 00:20:58;;;;;;;7.90;4.82;;;12.20;73.60;;;;;;5010407;28;20044;-73
2022/05/02 00:23:23;;;;;;;7.28;4.95;;;12.10;73.60;;;;;;5059191;28;20044;-73
2022/05/02 00:25:50;;;;;;;5.80;5.03;;;12.10;73.60;;;;;;5025263;28;20037;-72
2022/05/02 00:28:15;;;;;;;6.63;5.55;;;12.00;74.30;;;;;;5042152;28;20114;-72
2022/05/02 00:30:41;;;;;;;6.03;5.15;;;12.00;73.50;;;;;;5028825;28;20561;-73
2022/05/02 00:33:07;;;;;;;5.20;4.55;;;11.90;73.60;;;;;;5044745;28;20126;-72
2022/05/02 00:35:32;;;;;;;6.05;4.70;;;11.90;73.70;;;;;;5046985;28;20044;-72
2022/05/02 00:37:58;;;;;;;5.15;4.65;;;11.80;73.70;;;;;;5004828;28;20175;-73
2022/05/02 00:40:24;;;;;;;5.78;5.28;;;11.80;73.80;;;;;;5004135;28;20120;-72
2022/05/02 00:42:49;;;;;;;6.43;5.13;;;11.80;73.80;;;;;;4975959;28;20124;-72
2022/05/02 00:45:16;;;;;;;7.57;5.78;;;11.80;73.80;;;;;;5012334;28;20104;-73
2022/05/02 00:47:49;;;;;;;6.55;5.32;;;11.70;73.80;;;;;;5016995;28;20559;-72
2022/05/02 00:50:14;;;;;;;6.32;5.72;;;11.60;74.00;;;;;;5014973;28;20044;-72
2022/05/02 00:52:40;;;;;;;7.15;5.80;;;11.60;74.00;;;;;;4992137;28;20040;-72
2022/05/02 00:55:05;;;;;;;5.95;5.10;;;11.50;74.00;;;;;;5032292;28;20037;-72
2022/05/02 00:57:32;;;;;;;6.65;5.38;;;11.50;74.10;;;;;;5009186;28;20055;-72
2022/05/02 00:59:58;;;;;;;5.28;4.78;;;11.40;74.20;;;;;;5011756;28;20036;-72
2022/05/02 01:02:23;;;;;;;5.20;4.70;;;11.30;74.30;;;;;;4984351;28;20608;-72
2022/05/02 01:04:49;;;;;;;5.97;5.05;;;11.30;74.50;;;;;;5010210;28;20486;-72
2022/05/02 01:07:19;;;;;;;6.10;5.50;;;11.30;74.60;;;;;;5026473;28;20049;-72
2022/05/02 01:09:48;;;;;;;7.95;5.47;;;11.30;74.70;;;;;;5032056;28;20501;-72
2022/05/02 01:12:16;;;;;;;8.93;5.32;;;11.30;74.80;;;;;;5023159;28;20101;-72
2022/05/02 01:14:42;;;;;;;5.85;5.25;;;11.20;74.70;;;;;;5039535;28;20517;-73
2022/05/02 01:17:08;;;;;;;8.00;5.28;;;11.10;74.70;;;;;;5015813;28;20058;-72
2022/05/02 01:19:34;;;;;;;6.30;5.15;;;11.00;74.80;;;;;;5011292;28;20053;-71
2022/05/02 01:21:59;;;;;;;6.55;5.25;;;11.00;75.10;;;;;;5009934;28;20041;-73
2022/05/02 01:24:49;;;;;;;6.05;5.45;;;11.00;75.20;;;;;;5005511;28;20510;-72
2022/05/02 01:27:15;;;;;;;7.00;5.65;;;10.90;75.60;;;;;;5008681;28;20037;-72
2022/05/02 01:29:42;;;;;;;8.00;5.78;;;10.80;75.30;;;;;;5023893;28;20033;-72
2022/05/02 01:32:09;;;;;;;6.72;5.82;;;10.80;75.60;;;;;;5025644;28;20034;-72
2022/05/02 01:34:40;;;;;;;6.18;5.50;;;10.70;75.70;;;;;;5021990;28;20038;-71
2022/05/02 01:37:09;;;;;;;6.75;5.28;;;10.60;75.90;;;;;;5018820;28;20718;-72
2022/05/02 01:39:35;;;;;;;8.00;5.50;;;10.60;76.10;;;;;;5025949;28;20048;-72
2022/05/02 01:42:06;;;;;;;7.00;5.30;;;10.60;76.10;;;;;;5049725;28;20025;-72
2022/05/02 01:44:32;;;;;;;8.05;5.82;;;10.60;76.40;;;;;;5004711;28;20456;-73
2022/05/02 01:46:58;;;;;;;6.20;5.43;;;10.60;76.40;;;;;;5033125;28;20167;-72
2022/05/02 01:49:24;;;;;;;7.93;5.25;;;10.60;76.50;;;;;;5048106;28;20115;-72
2022/05/02 01:51:50;;;;;;;6.95;5.30;;;10.60;76.50;;;;;;5032732;28;20402;-72
2022/05/02 01:54:16;;;;;;;8.38;5.88;;;10.60;76.60;;;;;;5032312;28;20496;-72
2022/05/02 01:56:41;;;;;;;6.60;5.60;;;10.60;76.80;;;;;;5050520;28;20029;-72
2022/05/02 01:59:07;;;;;;;7.78;5.38;;;10.60;76.90;;;;;;5058325;28;20064;-73
2022/05/02 02:01:32;;;;;;;7.50;5.38;;;10.50;76.90;;;;;;5036571;28;20517;-72
2022/05/02 02:05:48;;;;;;;7.68;5.30;;;10.60;77.10;;;;;;5048979;28;20044;-71
2022/05/02 02:06:47;;;;;;;6.40;5.00;;;10.60;77.20;;;;;;5033076;28;20044;-73
2022/05/02 02:09:12;;;;;;;5.65;4.63;;;10.60;77.10;;;;;;5031860;28;20383;-72
2022/05/02 02:11:38;;;;;;;7.45;5.15;;;10.60;77.20;;;;;;5025204;28;20037;-72
2022/05/02 02:14:03;;;;;;;7.30;5.25;;;10.60;77.30;;;;;;5028903;28;20048;-73
2022/05/02 02:16:29;;;;;;;7.03;4.47;;;10.60;77.40;;;;;;5029229;28;20467;-72
2022/05/02 02:18:54;;;;;;;5.35;4.47;;;10.70;77.50;;;;;;5044199;28;21080;-72
2022/05/02 02:21:20;;;;;;;8.70;5.28;;;10.70;77.30;;;;;;5029333;28;20041;-72
2022/05/02 02:23:45;;;;;;;7.30;5.10;;;10.70;77.30;;;;;;5044935;28;20036;-72
2022/05/02 02:26:11;;;;;;;5.78;4.93;;;10.70;77.50;;;;;;5027981;28;20107;-72
2022/05/02 02:28:40;;;;;;;5.28;4.78;;;10.70;77.50;;;;;;5040261;28;20396;-73
2022/05/02 02:31:07;;;;;;;6.07;4.60;;;10.60;77.60;;;;;;5044296;28;20704;-72
2022/05/02 02:33:32;;;;;;;6.35;4.70;;;10.60;77.60;;;;;;5007021;28;20041;-72
2022/05/02 02:35:59;;;;;;;7.18;5.40;;;10.60;77.70;;;;;;5038449;28;20130;-72
2022/05/02 02:38:25;;;;;;;9.98;5.32;;;10.50;77.70;;;;;;5029838;28;20036;-72
2022/05/02 02:40:50;;;;;;;6.07;4.65;;;10.50;77.90;;;;;;5053662;28;20109;-72
2022/05/02 02:43:16;;;;;;;6.65;5.35;;;10.50;78.00;;;;;;5042939;28;20048;-72
2022/05/02 02:45:41;;;;;;;8.25;5.10;;;10.40;78.00;;;;;;5032454;28;20534;-72
2022/05/02 02:48:07;;;;;;;6.82;5.10;;;10.40;78.10;;;;;;5016653;28;20134;-72
2022/05/02 02:50:33;;;;;;;7.25;4.93;;;10.40;78.20;;;;;;5041501;28;20044;-72
2022/05/02 02:52:58;;;;;;;6.03;4.78;;;10.40;78.30;;;;;;5036700;28;20718;-72
2022/05/02 02:55:24;;;;;;;6.30;4.25;;;10.40;78.40;;;;;;5024770;28;20037;-72
2022/05/02 02:57:50;;;;;;;5.82;4.60;;;10.40;78.40;;;;;;5060059;28;20041;-72
2022/05/02 03:00:16;;;;;;;9.05;4.85;;;10.40;78.40;;;;;;5047345;28;20135;-72
2022/05/02 03:02:42;;;;;;;7.80;4.72;;;10.40;78.40;;;;;;5044550;28;20108;-72
2022/05/02 03:07:52;;;;;;;5.72;4.97;;;10.40;78.60;;;;;;5027145;28;20046;-72
2022/05/02 03:10:17;;;;;;;6.18;4.88;;;10.40;78.40;;;;;;5036952;28;20033;-72
2022/05/02 03:12:43;;;;;;;5.75;4.93;;;10.40;78.50;;;;;;4998235;28;20033;-72
2022/05/02 03:15:08;;;;;;;6.35;4.50;;;10.30;78.40;;;;;;5026895;28;20033;-72
2022/05/02 03:17:34;;;;;;;5.68;4.47;;;10.30;78.50;;;;;;5059185;28;20112;-73
2022/05/02 03:19:59;;;;;;;5.03;4.28;;;10.20;78.50;;;;;;5063069;28;20036;-72
2022/05/02 03:22:25;;;;;;;6.15;4.63;;;10.20;78.70;;;;;;5034926;28;20071;-72
2022/05/02 03:24:50;;;;;;;7.45;4.97;;;10.20;79.50;;;;;;5022945;28;20021;-72
2022/05/02 03:27:16;;;;;;;7.63;4.63;;;10.10;78.70;;;;;;5037558;28;20040;-72
2022/05/02 03:29:42;;;;;;;6.38;4.55;;;10.10;78.90;;;;;;5004690;28;20055;-72
2022/05/02 03:32:07;;;;;;;6.72;4.35;;;10.10;78.90;;;;;;5041139;28;20055;-71
2022/05/02 03:34:33;;;;;;;5.22;3.97;;;10.10;78.90;;;;;;5059818;28;20041;-73
2022/05/02 03:36:58;;;;;;;4.93;4.43;;;10.10;79.00;;;;;;5021456;28;20041;-73
2022/05/02 03:39:24;;;;;;;7.10;4.82;;;10.10;79.00;;;;;;5043295;28;20116;-72
2022/05/02 03:41:49;;;;;;;5.95;4.85;;;10.10;79.10;;;;;;5041761;28;20652;-72
2022/05/02 03:44:15;;;;;;;5.18;4.50;;;10.00;79.00;;;;;;5024437;28;20122;-71
2022/05/02 03:46:41;;;;;;;5.45;4.10;;;10.10;79.10;;;;;;5059738;28;20039;-72
2022/05/02 03:49:06;;;;;;;6.07;4.25;;;10.00;78.90;;;;;;5044525;28;20025;-71
2022/05/02 03:51:32;;;;;;;4.88;4.38;;;10.00;79.00;;;;;;5046702;28;20124;-73
2022/05/02 03:53:57;;;;;;;9.50;4.18;;;10.00;79.00;;;;;;5007705;28;20048;-72
2022/05/02 03:56:23;;;;;;;8.68;4.75;;;10.00;79.10;;;;;;5040634;28;20063;-71
2022/05/02 03:58:48;;;;;;;5.15;4.00;;;10.00;79.20;;;;;;5022852;28;20057;-73
2022/05/02 04:01:14;;;;;;;4.85;4.40;;;10.00;80.00;;;;;;5027647;28;20079;-72
2022/05/02 04:03:40;;;;;;;5.03;4.20;;;10.00;79.20;;;;;;5014661;28;20024;-71
2022/05/02 04:06:05;;;;;;;10.38;5.00;;;9.90;79.20;;;;;;5019326;28;20090;-71
2022/05/02 04:08:31;;;;;;;4.18;3.70;;;9.90;79.30;;;;;;5013961;28;20945;-71
2022/05/02 04:10:56;;;;;;;5.22;4.45;;;9.90;79.50;;;;;;5023990;28;20048;-72
2022/05/02 04:13:22;;;;;;;5.80;4.03;;;9.90;79.50;;;;;;5021812;28;20040;-72
2022/05/02 04:15:49;;;;;;;6.68;4.38;;;9.90;79.50;;;;;;5052039;28;20025;-72
2022/05/02 04:18:15;;;;;;;5.55;4.50;;;9.80;79.50;;;;;;5056704;28;20040;-71
2022/05/02 04:20:41;;;;;;;4.97;4.47;;;9.80;79.60;;;;;;5026875;28;20489;-71
2022/05/02 04:23:06;;;;;;;4.68;4.03;;;9.80;79.60;;;;;;5036012;28;20032;-71
2022/05/02 04:25:32;;;;;;;8.70;4.20;;;9.80;79.70;;;;;;5022322;28;20045;-71
2022/05/02 04:27:57;;;;;;;4.68;4.20;;;9.80;79.70;;;;;;5020476;28;20040;-72
2022/05/02 04:30:23;;;;;;;8.07;4.72;;;9.70;79.80;;;;;;5029845;28;20040;-72
2022/05/02 04:32:48;;;;;;;4.53;3.55;;;9.80;79.90;;;;;;5013534;28;20036;-71
2022/05/02 04:35:14;;;;;;;5.07;3.88;;;9.80;80.00;;;;;;5053970;28;20021;-71
2022/05/02 04:37:40;;;;;;;5.53;4.05;;;9.70;79.90;;;;;;5039131;28;20043;-72
2022/05/02 04:40:06;;;;;;;4.70;4.15;;;9.80;79.90;;;;;;5046091;28;20024;-71
2022/05/02 04:42:32;;;;;;;8.65;4.22;;;9.80;80.00;;;;;;5038288;28;20033;-73
2022/05/02 04:44:57;;;;;;;4.38;3.97;;;9.80;80.70;;;;;;5018030;28;20036;-71
2022/05/02 04:47:23;;;;;;;5.07;4.22;;;9.80;80.00;;;;;;5022925;28;20124;-71
2022/05/02 04:49:49;;;;;;;6.20;4.97;;;9.80;80.00;;;;;;5038624;28;20038;-71
2022/05/02 04:52:14;;;;;;;7.20;4.43;;;9.80;80.00;;;;;;5018577;28;20029;-72
2022/05/02 04:54:40;;;;;;;6.53;4.30;;;9.80;80.10;;;;;;5038599;28;20032;-71
2022/05/02 04:57:06;;;;;;;4.68;4.07;;;9.80;80.10;;;;;;5037215;28;20029;-71
2022/05/02 04:59:31;;;;;;;7.68;4.07;;;9.80;80.10;;;;;;5009352;28;20032;-71
2022/05/02 05:01:58;;;;;;;6.60;3.65;;;9.80;80.10;;;;;;5022381;28;20037;-72
2022/05/02 05:04:23;;;;;;;5.03;4.03;;;9.70;80.20;;;;;;5014396;28;20177;-71
2022/05/02 05:06:49;;;;;;;6.65;4.03;;;9.80;80.20;;;;;;5054474;28;20044;-71
2022/05/02 05:09:14;;;;;;;5.47;4.32;;;9.80;80.20;;;;;;5058227;28;20037;-71
2022/05/02 05:12:00;;;;;;;5.25;4.05;;;9.80;80.20;;;;;;5026355;28;20416;-71
2022/05/02 05:17:43;;;;;;;8.35;4.00;;;9.90;80.30;;;;;;5048331;28;20036;-71
2022/05/02 05:20:12;;;;;;;6.07;3.67;;;9.90;80.50;;;;;;5028381;28;20036;-71
2022/05/02 05:22:56;;;;;;;3.95;3.55;;;9.90;80.40;;;;;;5004744;28;20037;-72
2022/05/02 05:25:22;;;;;;;7.15;4.30;;;9.90;80.40;;;;;;5029823;28;20048;-75
2022/05/02 05:27:48;;;;;;;5.78;4.35;;;10.00;80.40;;;;;;5041613;28;20040;-71
2022/05/02 05:30:16;;;;;;;4.80;4.25;;;10.00;80.60;;;;;;5057442;28;20036;-71
2022/05/02 05:33:00;;;;;;;4.25;3.80;;;10.00;80.60;;;;;;5058341;28;20036;-72
2022/05/02 05:35:41;;;;;;;6.90;4.30;;;10.10;80.80;;;;;;5025275;28;20087;-71
2022/05/02 05:38:17;;;;;;;4.22;3.50;;;10.20;80.80;;;;;;5039808;28;20037;-71
2022/05/02 05:40:42;;;;;;;9.77;4.78;;;10.20;80.80;;;;;;5056486;28;20032;-72
2022/05/02 05:43:45;;;;;;;10.98;6.57;;;10.30;80.60;;;;;;5005686;28;20029;-72
2022/05/02 05:46:23;;;;;;;11.23;8.75;;;10.40;81.00;;;;;;5043851;28;20108;-72
2022/05/02 05:49:29;;;;;;;11.55;8.38;;;10.50;80.90;;;;;;5052208;28;20716;-72
2022/05/02 05:52:10;;;;;;;10.65;6.90;;;10.60;81.20;;;;;;5027614;28;20115;-71
2022/05/02 05:55:03;;;;;;;10.45;7.05;;;10.70;81.00;;;;;;5011733;28;20045;-72
2022/05/02 05:57:43;;;;;;;8.65;4.55;;;10.80;80.90;;;;;;5027232;28;20051;-72
2022/05/02 06:00:13;;;;;;;9.00;6.45;;;10.80;80.50;;;;;;5024829;28;20071;-72
2022/05/02 06:03:12;;;;;;;7.65;4.78;;;10.90;80.20;;;;;;5024652;28;20040;-72
2022/05/02 06:05:42;;;;;;;7.68;4.97;;;11.00;80.10;;;;;;4997635;28;20337;-72
2022/05/02 06:08:09;;;;;;;9.30;6.80;;;11.20;79.90;;;;;;5044186;28;20025;-71
2022/05/02 06:10:34;;;;;;;11.90;6.97;;;11.30;79.80;;;;;;5019544;28;20505;-71
2022/05/02 06:13:00;;;;;;;11.45;7.18;;;11.30;79.70;;;;;;5012252;28;20102;-72
2022/05/02 06:18:27;;;;;;;10.15;6.85;;;11.50;79.50;;;;;;5007523;28;20079;-72
2022/05/02 06:20:53;;;;;;;10.52;7.15;;;11.60;79.60;;;;;;5047956;28;20065;-72
2022/05/02 06:23:18;;;;;;;10.20;7.50;;;11.60;79.50;;;;;;5020026;28;20064;-72
2022/05/02 06:25:48;;;;;;;10.93;7.32;;;11.70;79.40;;;;;;5060907;28;20057;-72
2022/05/02 06:28:13;;;;;;;7.90;6.10;;;11.70;79.20;;;;;;5026228;28;20033;-72
2022/05/02 06:30:39;;;;;;;12.23;6.18;;;11.80;79.10;;;;;;5028812;28;20411;-72
2022/05/02 06:33:10;;;;;;;7.60;5.72;;;11.90;78.90;;;;;;5013824;28;20036;-72
2022/05/02 06:35:40;;;;;;;10.77;7.25;;;12.10;78.80;;;;;;5026881;28;20033;-72
2022/05/02 06:38:07;;;;;;;16.50;7.15;;;12.10;78.40;;;;;;4995829;28;20073;-72
2022/05/02 06:41:03;;;;;;;11.02;5.82;;;12.20;78.30;;;;;;5040972;28;20041;-72
2022/05/02 06:44:07;;;;;;;10.13;6.53;;;12.30;78.20;;;;;;5006289;28;20410;-71
2022/05/02 06:46:41;;;;;;;7.72;5.50;;;12.50;78.30;;;;;;5025338;28;20029;-71
2022/05/02 06:49:11;;;;;;;8.60;5.30;;;12.60;77.90;;;;;;5023901;28;20478;-72
2022/05/02 06:51:39;;;;;;;9.25;4.97;;;12.80;78.20;;;;;;5039800;28;20030;-71
2022/05/02 06:54:38;;;;;;;10.88;5.25;;;13.00;77.60;;;;;;4997766;28;20037;-72
2022/05/02 06:57:18;;;;;;;6.07;4.25;;;13.20;77.10;;;;;;5015813;28;20592;-72
2022/05/02 07:00:00;;;;;;;8.57;4.47;;;13.40;76.60;;;;;;4995562;28;20044;-72
2022/05/02 07:03:03;;;;;;;5.43;4.18;;;13.60;76.20;;;;;;5017243;28;20055;-72
2022/05/02 07:05:51;;;;;;;13.23;4.65;;;13.80;75.90;;;;;;5025242;28;20043;-72
2022/05/02 07:08:27;;;;;;;10.52;3.80;;;14.00;75.40;;;;;;5004525;28;20513;-72
2022/05/02 07:10:58;;;;;;;5.45;3.97;;;14.10;75.00;;;;;;5026057;28;20037;-72
2022/05/02 07:13:33;;;;;;;8.07;3.53;;;14.30;74.70;;;;;;5006303;28;20501;-72
2022/05/02 07:16:29;;;;;;;5.10;3.20;;;14.40;74.20;;;;;;5002862;28;20072;-73
2022/05/02 07:19:25;;;;;;;3.33;3.03;;;14.50;73.90;;;;;;5002360;28;20037;-72
2022/05/02 07:22:09;;;;;;;4.93;3.53;;;14.60;73.20;;;;;;5012461;28;20543;-72
2022/05/02 07:24:41;;;;;;;5.55;3.42;;;14.70;72.90;;;;;;5007956;28;20033;-73
2022/05/02 07:27:33;;;;;;;4.50;3.05;;;14.90;72.90;;;;;;5017230;28;20033;-73
2022/05/02 07:29:59;;;;;;;5.88;3.90;;;15.00;72.30;;;;;;4992242;28;20047;-73
2022/05/02 07:32:24;;;;;;;5.93;3.20;;;15.20;72.00;;;;;;4994292;28;20402;-73
2022/05/02 07:34:50;;;;;;;6.57;3.47;;;15.20;71.50;;;;;;5014634;28;20033;-73
2022/05/02 07:37:17;;;;;;;6.35;3.33;;;15.30;71.20;;;;;;5031906;28;20456;-73
2022/05/02 07:39:42;;;;;;;7.20;3.15;;;15.40;70.80;;;;;;5040998;28;20491;-73
2022/05/02 07:42:08;;;;;;;8.18;3.60;;;15.50;70.50;;;;;;5040238;28;20029;-73
2022/05/02 07:44:34;;;;;;;4.65;3.45;;;15.50;70.20;;;;;;5035195;28;20095;-73
2022/05/02 07:47:01;;;;;;;5.60;3.13;;;15.60;70.00;;;;;;5039739;28;20124;-73
2022/05/02 07:49:28;;;;;;;9.57;3.30;;;15.70;69.60;;;;;;5011376;28;20041;-73
2022/05/02 07:51:54;;;;;;;3.97;3.30;;;15.70;69.20;;;;;;5024120;28;20048;-73
2022/05/02 07:54:26;;;;;;;6.60;2.95;;;15.80;69.00;;;;;;5051346;28;20676;-73
2022/05/02 07:56:54;;;;;;;6.13;2.95;;;15.90;68.60;;;;;;5036797;28;20028;-73
2022/05/02 07:59:23;;;;;;;6.25;3.22;;;16.00;68.60;;;;;;4996323;28;20089;-73
2022/05/02 08:01:48;;;;;;;9.27;3.80;;;16.10;68.20;;;;;;5006327;28;20033;-73
2022/05/02 08:04:14;;;;;;;7.65;3.38;;;16.30;67.80;;;;;;5056442;28;20078;-73
2022/05/02 08:07:10;;;;;;;4.72;3.22;;;16.40;67.30;;;;;;5012613;28;20098;-73
2022/05/02 08:10:00;;;;;;;5.10;3.08;;;16.60;66.40;;;;;;5011542;28;20029;-73
2022/05/02 08:12:49;;;;;;;7.15;3.65;;;16.70;65.70;;;;;;5041028;28;20119;-73
2022/05/02 08:15:26;;;;;;;5.90;3.63;;;16.80;65.30;;;;;;5038842;28;20558;-73
2022/05/02 08:18:17;;;;;;;5.03;3.08;;;16.90;65.40;;;;;;5044545;28;20024;-73
2022/05/02 08:20:59;;;;;;;5.55;3.50;;;17.00;65.20;;;;;;5006500;28;20079;-74
2022/05/02 08:29:29;;;;;;;4.05;3.22;;;17.30;64.50;;;;;;5047056;28;20055;-73
2022/05/02 08:32:11;;;;;;;5.53;3.05;;;17.50;64.20;;;;;;5040083;28;20580;-73
2022/05/02 08:34:39;;;;;;;;;;;17.60;63.70;;;;;;5029383;28;20082;-73
2022/05/02 08:37:32;;;;;;;6.55;3.85;;;17.80;63.90;;;;;;5041735;28;19923;-73
2022/05/02 08:40:18;;;;;;;6.57;3.42;;;17.90;63.20;;;;;;5039838;28;20033;-74
2022/05/02 08:43:25;;;;;;;5.63;3.55;;;18.10;62.70;;;;;;5025143;28;20171;-73
2022/05/02 08:46:03;;;;;;;6.65;3.75;;;18.30;62.10;;;;;;5018929;28;20086;-74
2022/05/02 08:51:48;;;;;;;5.65;3.97;;;18.70;60.90;;;;;;5057681;28;20047;-73
2022/05/02 08:54:32;;;;;;;10.40;4.45;;;18.90;60.80;;;;;;5042657;28;20453;-73
2022/05/02 08:57:21;;;;;;;9.93;4.63;;;19.10;59.70;;;;;;5012610;28;20041;-74
2022/05/02 09:00:15;;;;;;;5.07;3.40;;;19.30;59.40;;;;;;5023775;28;20460;-73
2022/05/02 09:03:02;;;;;;;4.03;3.42;;;19.50;59.60;;;;;;5012373;28;20591;-74
2022/05/02 09:05:51;;;;;;;6.93;3.40;;;19.70;58.90;;;;;;5018674;28;20620;-73
2022/05/02 09:08:44;;;;;;;6.43;3.83;;;19.90;58.50;;;;;;5043992;28;20086;-74
2022/05/02 09:11:39;;;;;;;7.68;3.80;;;20.00;58.30;;;;;;5038544;28;20086;-73
2022/05/02 09:14:24;;;;;;;8.27;3.60;;;20.30;57.90;;;;;;5020427;28;20206;-74
2022/05/02 09:17:15;;;;;;;7.00;4.60;;;20.50;57.30;;;;;;5043817;28;20564;-74
2022/05/02 09:19:46;;;;;;;7.47;3.90;;;20.70;57.50;;;;;;5056739;28;20057;-73
2022/05/02 09:22:30;;;;;;;;;;;20.90;57.40;;;;;;5042798;28;20036;-73
2022/05/02 09:25:03;;;;;;;4.18;3.40;;;21.10;57.30;;;;;;5046526;28;19915;-73
2022/05/02 09:28:02;;;;;;;7.93;4.25;;;21.20;57.10;;;;;;5015003;28;20101;-73
2022/05/02 09:30:33;;;;;;;6.15;3.58;;;21.40;55.70;;;;;;5012865;28;20116;-73
2022/05/02 09:33:04;;;;;;;9.90;4.07;;;21.60;56.10;;;;;;5042767;28;20041;-74
2022/05/02 09:35:30;;;;;;;6.00;4.28;;;21.70;55.40;;;;;;5047022;28;20493;-74
2022/05/02 09:37:57;;;;;;;7.60;4.05;;;21.90;55.30;;;;;;5060883;28;20503;-73
2022/05/02 09:40:36;;;;;;;7.13;4.30;;;22.10;55.00;;;;;;5030090;28;20033;-74
2022/05/02 09:43:06;;;;;;;5.93;4.03;;;22.30;53.70;;;;;;5019560;28;20036;-73
2022/05/02 09:51:46;;;;;;;5.07;3.65;;;22.80;53.30;;;;;;5035350;28;20029;-74
2022/05/02 09:57:12;;;;;;;4.80;3.50;;;23.20;52.40;;;;;;5043184;28;20099;-74
2022/05/02 09:59:38;;;;;;;5.75;3.35;;;23.30;52.70;;;;;;5029031;28;20044;-74
2022/05/02 10:02:08;;;;;;;7.90;3.85;;;23.30;52.60;;;;;;5009023;28;20045;-74
2022/05/02 10:04:53;;;;;;;7.72;3.55;;;23.30;52.40;;;;;;5036425;28;20080;-74
2022/05/02 10:07:23;;;;;;;6.57;4.05;;;23.40;51.80;;;;;;5018051;28;20436;-75
2022/05/02 10:09:48;;;;;;;10.63;4.10;;;23.50;51.90;;;;;;5044292;28;20644;-74
2022/05/02 10:12:32;;;;;;;7.15;3.90;;;23.70;51.80;;;;;;5043103;28;20044;-74
2022/05/02 10:15:06;;;;;;;5.30;3.78;;;23.80;50.70;;;;;;5041068;28;20040;-74
2022/05/02 10:18:04;;;;;;;4.82;3.47;;;24.00;51.30;;;;;;5041325;28;20037;-74
2022/05/02 10:20:57;;;;;;;5.18;3.42;;;24.10;50.20;;;;;;5062301;28;20076;-74
2022/05/02 10:23:47;;;;;;;5.18;4.05;;;24.30;50.10;;;;;;5029743;28;20040;-75
2022/05/02 10:26:25;;;;;;;6.75;3.70;;;24.40;50.20;;;;;;5036180;28;20036;-74
2022/05/02 10:29:02;;;;;;;6.53;3.65;;;24.50;50.20;;;;;;5013499;28;20195;-74
2022/05/02 10:31:28;;;;;;;5.10;3.92;;;24.70;49.80;;;;;;5051322;28;20024;-74
2022/05/02 10:33:54;;;;;;;6.95;4.20;;;24.90;49.70;;;;;;5030815;28;20063;-74
2022/05/02 10:36:22;;;;;;;5.88;4.18;;;25.10;49.10;;;;;;5040624;28;20066;-74
2022/05/02 10:38:52;;;;;;;5.68;3.47;;;25.20;48.70;;;;;;5013490;28;20583;-75
2022/05/02 10:41:46;;;;;;;6.35;4.10;;;25.30;48.10;;;;;;5020239;28;20116;-74
2022/05/02 10:44:14;;;;;;;4.20;3.53;;;25.50;47.60;;;;;;5028953;28;20032;-75
2022/05/02 10:46:39;;;;;;;4.20;3.80;;;25.60;48.10;;;;;;5020436;28;20036;-74
2022/05/02 10:49:14;;;;;;;4.10;3.70;;;25.70;47.90;;;;;;5032622;28;20033;-74
2022/05/02 10:51:46;;;;;;;5.40;3.67;;;25.90;47.90;;;;;;5007767;28;20040;-74
2022/05/02 10:54:37;;;;;;;7.57;4.22;;;26.10;47.30;;;;;;5042497;28;20446;-74
2022/05/02 10:57:17;;;;;;;7.93;3.40;;;26.30;46.40;;;;;;5015283;28;20041;-75
2022/05/02 10:59:44;;;;;;;5.30;3.33;;;26.30;45.80;;;;;;5061447;28;20048;-74
2022/05/02 11:02:19;;;;;;;5.72;3.50;;;26.40;46.40;;;;;;5061861;28;20047;-74
2022/05/02 11:04:51;;;;;;;5.80;3.90;;;26.50;46.10;;;;;;5044076;28;20067;-74
2022/05/02 11:07:29;;;;;;;7.05;3.33;;;26.60;45.90;;;;;;5037384;28;20690;-75
2022/05/02 11:10:07;;;;;;;7.63;3.53;;;26.90;44.90;;;;;;5028346;28;20032;-74
2022/05/02 11:12:56;;;;;;;5.03;3.50;;;27.00;44.40;;;;;;5026499;28;20059;-74
2022/05/02 11:15:24;;;;;;;3.58;2.72;;;27.10;43.60;;;;;;5043219;28;20044;-75
2022/05/02 11:21:15;;;;;;;5.80;3.63;;;27.20;43.20;;;;;;5037070;28;20063;-74
2022/05/02 11:23:53;;;;;;;4.43;3.60;;;27.30;43.70;;;;;;5042105;28;20036;-75
2022/05/02 11:26:32;;;;;;;4.60;3.20;;;27.50;43.40;;;;;;5024821;28;20033;-74
2022/05/02 11:29:25;;;;;;;4.07;3.63;;;27.50;43.50;;;;;;5032631;28;20032;-74
2022/05/02 11:31:57;;;;;;;8.45;3.70;;;27.60;42.60;;;;;;5036979;28;20032;-74
2022/05/02 11:34:23;;;;;;;5.35;3.20;;;27.80;43.00;;;;;;5058006;28;20048;-74
2022/05/02 11:36:53;;;;;;;5.43;3.30;;;27.80;42.90;;;;;;5043065;28;20567;-74
2022/05/02 11:39:45;;;;;;;5.70;3.20;;;28.00;42.20;;;;;;5028680;28;20578;-75
2022/05/02 11:42:14;;;;;;;5.53;4.10;;;28.00;41.40;;;;;;5040525;28;20512;-74
2022/05/02 11:44:48;;;;;;;5.18;3.50;;;28.10;41.90;;;;;;5002576;28;20064;-74
2022/05/02 11:47:20;;;;;;;5.60;3.25;;;28.10;40.80;;;;;;5023128;28;20061;-74
2022/05/02 11:50:02;;;;;;;4.68;3.28;;;28.20;41.20;;;;;;5027878;28;20659;-74
2022/05/02 11:52:30;;;;;;;3.67;3.03;;;28.30;40.90;;;;;;5034352;28;20140;-74
2022/05/02 11:54:56;;;;;;;4.30;3.55;;;28.40;41.10;;;;;;5060828;28;20085;-74
2022/05/02 11:57:35;;;;;;;6.07;3.88;;;28.60;41.10;;;;;;5030910;28;20036;-75
2022/05/02 12:00:14;;;;;;;3.92;3.10;;;28.50;40.40;;;;;;5008080;28;20036;-74
2022/05/02 12:02:53;;;;;;;4.28;3.13;;;28.30;40.00;;;;;;5035979;28;20078;-75
2022/05/02 12:05:24;;;;;;;5.80;3.40;;;28.30;39.60;;;;;;5042035;28;20404;-75
2022/05/02 12:07:51;;;;;;;6.25;3.50;;;28.40;39.60;;;;;;5025544;28;20058;-74
2022/05/02 12:10:17;;;;;;;4.22;3.40;;;28.50;39.60;;;;;;5012813;28;20619;-74
2022/05/02 12:12:49;;;;;;;5.53;3.60;;;28.50;39.50;;;;;;5024249;28;20051;-74
2022/05/02 12:15:15;;;;;;;4.22;3.83;;;28.60;38.80;;;;;;5059633;28;20839;-75
2022/05/02 12:17:56;;;;;;;4.32;3.58;;;28.70;38.90;;;;;;5061251;28;20063;-74
2022/05/02 12:20:33;;;;;;;3.85;3.22;;;28.60;38.00;;;;;;5058176;28;20033;-75
2022/05/02 12:23:30;;;;;;;4.25;3.25;;;28.60;38.20;;;;;;5027365;28;20053;-74
2022/05/02 12:25:56;;;;;;;3.78;3.30;;;28.60;38.10;;;;;;5031583;28;20040;-74
2022/05/02 12:28:48;;;;;;;4.05;3.60;;;28.70;38.90;;;;;;5008632;28;20560;-74
2022/05/02 12:31:15;;;;;;;6.07;3.50;;;28.70;37.40;;;;;;5043253;28;20045;-74
2022/05/02 12:33:43;;;;;;;3.72;3.35;;;28.70;39.30;;;;;;5033889;28;20033;-75
2022/05/02 12:36:14;;;;;;;4.15;3.20;;;28.70;38.60;;;;;;5040978;28;20056;-74
2022/05/02 12:38:40;;;;;;;4.85;3.22;;;28.80;38.30;;;;;;5040086;28;20037;-74
2022/05/02 12:41:05;;;;;;;98.93;26.35;;;28.80;38.40;;;;;;5042480;28;20094;-77
2022/05/02 12:43:44;;;;;;;117.57;36.67;;;28.80;38.50;;;;;;5031715;28;20036;-75
2022/05/02 12:46:10;;;;;;;56.90;19.48;;;28.80;37.60;;;;;;5021456;28;20040;-74
2022/05/02 12:48:37;;;;;;;105.05;29.80;;;28.80;38.30;;;;;;5014260;28;20127;-75
2022/05/02 12:51:03;;;;;;;56.70;14.60;;;28.80;38.20;;;;;;5065208;28;20033;-74
2022/05/02 12:56:13;;;;;;;5.22;3.33;;;28.90;38.00;;;;;;5048829;28;20062;-75
2022/05/02 13:01:25;;;;;;;5.10;2.90;;;29.10;37.90;;;;;;5010544;28;20040;-74
2022/05/02 13:03:58;;;;;;;4.32;3.47;;;29.10;37.70;;;;;;5013566;28;20496;-74
2022/05/02 13:06:24;;;;;;;5.68;3.20;;;29.10;36.80;;;;;;5042600;28;20063;-74
2022/05/02 13:08:49;;;;;;;4.38;2.80;;;29.10;37.20;;;;;;5037867;28;20524;-74
2022/05/02 13:11:22;;;;;;;5.20;3.03;;;29.00;36.70;;;;;;5029357;28;20124;-75
2022/05/02 13:13:52;;;;;;;4.55;3.50;;;29.00;36.50;;;;;;5027094;28;20094;-74
2022/05/02 13:16:43;;;;;;;3.55;2.90;;;28.90;36.10;;;;;;5034381;28;20031;-74
2022/05/02 13:19:09;;;;;;;5.35;3.40;;;28.90;35.60;;;;;;5028440;28;20048;-75
2022/05/02 13:21:34;;;;;;;3.85;2.65;;;28.90;36.50;;;;;;5042964;28;20401;-74
2022/05/02 13:24:10;;;;;;;3.00;2.70;;;28.80;36.40;;;;;;5032024;28;23427;-74
2022/05/02 13:26:57;;;;;;;6.13;2.90;;;28.90;37.00;;;;;;5054897;28;20040;-75
2022/05/02 13:29:47;;;;;;;4.15;2.90;;;28.90;36.10;;;;;;5030223;28;20037;-76
2022/05/02 13:32:23;;;;;;;4.35;2.70;;;28.90;35.50;;;;;;5053005;28;20647;-74
2022/05/02 13:34:50;;;;;;;5.43;3.17;;;28.80;35.30;;;;;;5024311;28;20053;-74
2022/05/02 13:37:29;;;;;;;4.70;3.08;;;28.80;36.00;;;;;;5041702;28;20037;-74
2022/05/02 13:40:14;;;;;;;3.88;3.03;;;28.80;35.70;;;;;;5020815;28;20126;-74
2022/05/02 13:42:55;;;;;;;3.83;3.28;;;28.80;35.20;;;;;;5001480;28;20106;-75
2022/05/02 13:45:42;;;;;;;3.40;2.50;;;28.90;35.80;;;;;;5050028;28;20029;-75
2022/05/02 13:48:21;;;;;;;3.42;3.13;;;28.90;35.20;;;;;;5042372;28;20405;-75
2022/05/02 13:51:02;;;;;;;6.88;2.90;;;28.90;35.00;;;;;;5025921;28;20090;-74